Time;durP1;ratioP1;P1;durP2;ratioP2;P2;SDS_P1;SDS_P2;PMS_P1;PMS_P2;Temp;Humidity;BMP_temperature;BMP_pressure;BME280_temperature;BME280_humidity;BME280_pressure;Samples;Min_cycle;Max_cycle;Signal;HPM_P1;HPM_P2
2024/01/28 00:00:38;;;;;;;10.90;7.40;;;;;;;0.75;100.00;101632.15;105424;1257;65098;-58
2024/01/28 00:03:06;;;;;;;11.00;8.50;;;;;;;0.74;100.00;101637.63;105248;1260;72749;-56
2024/01/28 00:05:34;;;;;;;12.10;8.00;;;;;;;0.72;100.00;101632.44;104787;1259;60510;-57
2024/01/28 00:08:02;;;;;;;11.30;7.10;;;;;;;0.70;100.00;101628.85;104762;1264;60482;-57
2024/01/28 00:10:29;;;;;;;10.80;6.30;;;;;;;0.67;100.00;101633.22;104863;1256;74711;-57
2024/01/28 00:12:57;;;;;;;9.80;6.40;;;;;;;0.67;100.00;101632.69;104714;1259;66746;-58
2024/01/28 00:15:24;;;;;;;10.00;6.30;;;;;;;0.66;100.00;101631.77;104777;1260;73724;-58
2024/01/28 00:17:58;;;;;;;10.20;7.60;;;;;;;0.68;100.00;101639.23;104856;1259;60533;-57
2024/01/28 00:20:25;;;;;;;12.20;8.00;;;;;;;0.70;100.00;101639.80;104846;1260;60441;-56
2024/01/28 00:22:52;;;;;;;10.80;8.10;;;;;;;0.70;100.00;101638.39;104745;1269;73920;-57
2024/01/28 00:25:20;;;;;;;13.10;8.00;;;;;;;0.69;100.00;101639.78;104989;1260;66943;-57
2024/01/28 00:27:47;;;;;;;12.50;7.70;;;;;;;0.65;100.00;101637.23;105012;1261;72765;-57
2024/01/28 00:30:15;;;;;;;11.50;8.60;;;;;;;0.65;100.00;101637.40;105480;1262;60898;-56
2024/01/28 00:32:42;;;;;;;9.70;7.40;;;;;;;0.65;100.00;101637.05;105042;1263;60365;-58
2024/01/28 00:35:09;;;;;;;12.10;7.60;;;;;;;0.65;100.00;101637.94;104991;1257;72913;-56
2024/01/28 00:37:37;;;;;;;9.80;7.50;;;;;;;0.68;100.00;101638.70;105020;1259;65790;-57
2024/01/28 00:40:06;;;;;;;9.60;6.90;;;;;;;0.69;100.00;101644.56;105131;1260;71048;-56
2024/01/28 00:42:33;;;;;;;13.70;8.90;;;;;;;0.70;100.00;101644.92;104911;1259;60639;-57
2024/01/28 00:45:02;;;;;;;10.30;8.00;;;;;;;0.69;100.00;101647.38;104777;1257;60475;-57
2024/01/28 00:47:29;;;;;;;16.10;9.40;;;;;;;0.66;100.00;101648.75;106080;1257;72968;-57
2024/01/28 00:49:57;;;;;;;13.30;8.90;;;;;;;0.64;100.00;101647.80;104881;1260;65989;-57
2024/01/28 00:52:24;;;;;;;10.50;8.20;;;;;;;0.61;100.00;101649.68;104615;1260;72438;-57
2024/01/28 00:54:52;;;;;;;9.60;7.00;;;;;;;0.62;100.00;101651.83;104907;1259;61000;-55
2024/01/28 00:57:19;;;;;;;11.40;7.80;;;;;;;0.65;100.00;101655.96;104776;1259;60515;-56
2024/01/28 00:59:46;;;;;;;11.40;8.00;;;;;;;0.70;100.00;101658.88;105156;1259;72554;-57
2024/01/28 01:02:13;;;;;;;14.10;9.90;;;;;;;0.74;100.00;101668.70;104712;1260;67691;-57
2024/01/28 01:04:41;;;;;;;13.40;9.10;;;;;;;0.78;100.00;101667.17;104752;1259;73118;-56
2024/01/28 01:07:08;;;;;;;12.30;8.80;;;;;;;0.79;100.00;101668.26;104675;1260;60513;-57
2024/01/28 01:09:36;;;;;;;13.20;9.30;;;;;;;0.78;100.00;101672.31;105827;1258;60524;-57
2024/01/28 01:12:04;;;;;;;12.10;8.70;;;;;;;0.74;100.00;101674.38;104920;1256;73887;-57
2024/01/28 01:14:35;;;;;;;13.30;9.20;;;;;;;0.72;100.00;101677.33;105408;1260;68280;-57
2024/01/28 01:17:03;;;;;;;12.20;8.20;;;;;;;0.70;100.00;101679.55;104901;1269;70920;-57
2024/01/28 01:19:31;;;;;;;14.90;9.00;;;;;;;0.68;100.00;101680.23;104908;1260;60473;-57
2024/01/28 01:22:01;;;;;;;12.80;8.40;;;;;;;0.67;100.00;101685.69;104801;1260;60632;-57
2024/01/28 01:24:29;;;;;;;15.50;9.10;;;;;;;0.69;100.00;101689.44;104847;1261;73075;-57
2024/01/28 01:26:56;;;;;;;14.00;9.50;;;;;;;0.72;100.00;101689.87;105814;1262;67243;-57
2024/01/28 01:29:24;;;;;;;14.20;9.90;;;;;;;0.76;100.00;101694.73;104978;1260;73192;-57
2024/01/28 01:31:51;;;;;;;14.10;10.40;;;;;;;0.79;100.00;101699.71;104698;1258;60546;-57
2024/01/28 01:34:18;;;;;;;14.70;10.40;;;;;;;0.77;100.00;101698.63;104752;1260;60444;-57
2024/01/28 01:36:46;;;;;;;13.50;9.60;;;;;;;0.74;100.00;101696.45;104793;1256;72712;-57
2024/01/28 01:39:16;;;;;;;13.90;8.50;;;;;;;0.70;100.00;101703.06;104862;1260;64974;-60
2024/01/28 01:41:44;;;;;;;13.70;8.90;;;;;;;0.67;100.00;101704.08;104827;1260;71870;-57
2024/01/28 01:44:11;;;;;;;12.50;8.30;;;;;;;0.67;100.00;101709.90;104605;1259;61504;-57
2024/01/28 01:46:39;;;;;;;14.30;8.90;;;;;;;0.71;100.00;101717.23;104831;1259;60463;-56
2024/01/28 01:49:07;;;;;;;14.80;8.90;;;;;;;0.72;100.00;101716.38;104680;1261;72356;-56
2024/01/28 01:51:34;;;;;;;15.10;9.40;;;;;;;0.73;100.00;101720.30;108922;1254;66788;-58
2024/01/28 01:54:02;;;;;;;13.70;9.60;;;;;;;0.74;100.00;101726.51;108822;1254;70544;-58
2024/01/28 01:56:31;;;;;;;14.30;10.10;;;;;;;0.75;100.00;101732.35;108869;1260;60129;-58
2024/01/28 01:58:58;;;;;;;14.90;10.00;;;;;;;0.73;100.00;101733.89;108729;1254;59224;-58
2024/01/28 02:01:26;;;;;;;15.00;9.50;;;;;;;0.70;100.00;101734.16;108830;1260;73389;-58
2024/01/28 02:03:55;;;;;;;12.40;9.20;;;;;;;0.68;100.00;101733.06;108653;1254;66941;-58
2024/01/28 02:06:23;;;;;;;14.40;9.50;;;;;;;0.67;100.00;101732.88;108073;1259;72613;-57
2024/01/28 02:08:50;;;;;;;15.60;10.80;;;;;;;0.69;100.00;101735.55;104692;1254;60521;-56
2024/01/28 02:11:17;;;;;;;15.30;10.10;;;;;;;0.71;100.00;101734.54;104586;1260;60340;-56
2024/01/28 02:13:45;;;;;;;14.80;9.60;;;;;;;0.72;100.00;101737.74;104836;1254;74297;-57
2024/01/28 02:16:12;;;;;;;17.60;12.90;;;;;;;0.71;100.00;101736.50;104478;1258;66895;-57
2024/01/28 02:18:39;;;;;;;12.30;8.90;;;;;;;0.67;100.00;101733.58;104681;1269;72461;-56
2024/01/28 02:21:07;;;;;;;15.90;10.90;;;;;;;0.63;100.00;101733.48;104582;1260;61102;-57
2024/01/28 02:23:34;;;;;;;15.40;10.70;;;;;;;0.60;100.00;101735.00;104655;1261;60626;-55
2024/01/28 02:26:02;;;;;;;17.80;11.30;;;;;;;0.58;100.00;101739.73;105754;1254;73776;-55
2024/01/28 02:28:29;;;;;;;18.60;10.50;;;;;;;0.59;100.00;101736.91;104836;1257;67094;-57
2024/01/28 02:30:56;;;;;;;18.20;11.30;;;;;;;0.62;100.00;101746.35;104661;1257;71693;-57
2024/01/28 02:33:24;;;;;;;17.20;11.30;;;;;;;0.64;100.00;101746.23;104782;1254;60403;-57
2024/01/28 02:35:51;;;;;;;18.60;13.10;;;;;;;0.66;100.00;101747.51;104859;1260;60541;-57
2024/01/28 02:38:19;;;;;;;19.70;12.40;;;;;;;0.65;100.00;101750.50;104742;1260;73174;-56
2024/01/28 02:40:47;;;;;;;17.70;12.10;;;;;;;0.64;100.00;101751.86;104865;1260;67054;-57
2024/01/28 02:43:14;;;;;;;19.80;12.10;;;;;;;0.60;100.00;101757.96;105076;1261;70771;-56
2024/01/28 02:45:42;;;;;;;19.00;11.40;;;;;;;0.57;100.00;101754.89;104735;1254;60563;-56
2024/01/28 02:48:09;;;;;;;20.70;12.50;;;;;;;0.56;100.00;101756.09;105210;1261;60430;-58
2024/01/28 02:50:37;;;;;;;19.20;11.60;;;;;;;0.57;100.00;101754.90;105954;1255;72637;-56
2024/01/28 02:53:04;;;;;;;18.60;12.30;;;;;;;0.59;100.00;101762.18;104748;1254;66332;-57
2024/01/28 02:55:31;;;;;;;19.00;13.70;;;;;;;0.61;100.00;101768.39;104837;1260;73074;-55
2024/01/28 02:57:59;;;;;;;21.90;12.60;;;;;;;0.59;100.00;101770.67;104841;1261;60537;-56
2024/01/28 03:00:26;;;;;;;24.40;16.00;;;;;;;0.56;100.00;101775.19;105058;1259;60514;-56
2024/01/28 03:02:54;;;;;;;25.20;15.40;;;;;;;0.55;100.00;101775.48;105833;1260;72719;-55
2024/01/28 03:05:21;;;;;;;21.10;12.70;;;;;;;0.52;100.00;101779.83;104863;1254;66940;-56
2024/01/28 03:07:48;;;;;;;23.30;13.80;;;;;;;0.51;100.00;101780.35;105002;1257;72716;-56
2024/01/28 03:10:16;;;;;;;19.20;13.20;;;;;;;0.51;100.00;101783.71;104875;1258;60550;-56
2024/01/28 03:12:43;;;;;;;20.30;14.00;;;;;;;0.54;100.00;101789.80;104633;1260;60514;-56
2024/01/28 03:15:10;;;;;;;19.50;13.40;;;;;;;0.54;100.00;101792.44;104734;1260;74106;-56
2024/01/28 03:17:38;;;;;;;23.00;14.70;;;;;;;0.54;100.00;101795.08;104832;1254;66018;-57
2024/01/28 03:20:07;;;;;;;19.90;12.90;;;;;;;0.52;100.00;101798.05;104916;1257;74843;-57
2024/01/28 03:22:34;;;;;;;21.80;13.50;;;;;;;0.51;100.00;101801.38;104899;1255;62532;-56
2024/01/28 03:25:01;;;;;;;18.40;11.30;;;;;;;0.50;100.00;101809.86;104775;1260;60438;-57
2024/01/28 03:27:29;;;;;;;21.60;11.40;;;;;;;0.51;100.00;101810.04;105028;1259;73967;-57
2024/01/28 03:29:56;;;;;;;23.20;13.80;;;;;;;0.53;100.00;101813.07;105938;1263;66839;-57
2024/01/28 03:32:24;;;;;;;22.20;12.90;;;;;;;0.57;100.00;101820.42;104735;1270;72669;-57
2024/01/28 03:34:51;;;;;;;20.20;12.50;;;;;;;0.59;100.00;101822.96;105213;1260;60506;-56
2024/01/28 03:37:19;;;;;;;29.10;16.20;;;;;;;0.59;100.00;101828.79;105195;1254;60453;-57
2024/01/28 03:39:46;;;;;;;24.50;15.30;;;;;;;0.57;100.00;101829.09;104877;1260;75979;-57
2024/01/28 03:42:14;;;;;;;21.50;13.10;;;;;;;0.55;100.00;101832.91;104774;1259;70222;-57
2024/01/28 03:44:41;;;;;;;25.90;13.40;;;;;;;0.52;100.00;101833.89;104765;1260;72682;-55
2024/01/28 03:47:08;;;;;;;20.50;12.40;;;;;;;0.52;100.00;101839.02;104864;1256;61409;-57
2024/01/28 03:49:35;;;;;;;19.40;13.00;;;;;;;0.53;100.00;101835.14;104705;1258;60452;-56
2024/01/28 03:52:03;;;;;;;20.70;13.60;;;;;;;0.56;100.00;101845.31;104813;1255;72755;-56
2024/01/28 03:54:31;;;;;;;21.00;14.20;;;;;;;0.58;100.00;101846.61;104852;1255;64738;-56
2024/01/28 03:56:58;;;;;;;22.80;14.20;;;;;;;0.59;100.00;101846.10;104936;1256;72734;-54
2024/01/28 03:59:27;;;;;;;21.70;13.40;;;;;;;0.57;100.00;101859.31;104949;1254;60929;-54
2024/01/28 04:01:54;;;;;;;22.10;14.10;;;;;;;0.56;100.00;101861.94;104882;1254;60606;-56
2024/01/28 04:04:22;;;;;;;22.30;13.10;;;;;;;0.55;100.00;101864.73;104932;1255;73661;-57
2024/01/28 04:06:49;;;;;;;23.50;13.70;;;;;;;0.53;100.00;101861.49;104753;1260;65529;-56
2024/01/28 04:09:16;;;;;;;18.60;11.70;;;;;;;0.53;100.00;101861.84;104810;1257;71463;-56
2024/01/28 04:11:44;;;;;;;19.10;12.90;;;;;;;0.56;100.00;101867.21;105480;1257;61049;-56
2024/01/28 04:14:11;;;;;;;22.50;13.30;;;;;;;0.59;100.00;101874.20;104770;1254;60777;-57
2024/01/28 04:16:38;;;;;;;20.10;13.10;;;;;;;0.62;100.00;101877.09;104922;1259;73313;-56
2024/01/28 04:19:06;;;;;;;21.90;13.50;;;;;;;0.67;100.00;101884.30;104665;1258;65667;-58
2024/01/28 04:21:34;;;;;;;20.50;12.80;;;;;;;0.68;100.00;101888.04;108035;1254;71794;-56
2024/01/28 04:24:02;;;;;;;20.50;13.20;;;;;;;0.66;100.00;101889.03;105250;1260;60866;-56
2024/01/28 04:26:29;;;;;;;19.60;11.90;;;;;;;0.61;100.00;101891.04;104783;1260;60530;-56
2024/01/28 04:28:57;;;;;;;15.50;11.60;;;;;;;0.59;100.00;101893.98;104800;1261;72231;-56
2024/01/28 04:31:26;;;;;;;20.50;11.90;;;;;;;0.58;100.00;101894.31;104627;1259;66917;-58
2024/01/28 04:33:54;;;;;;;22.70;14.10;;;;;;;0.60;100.00;101900.02;105049;1260;71537;-57
2024/01/28 04:36:21;;;;;;;23.90;13.80;;;;;;;0.64;100.00;101905.05;105141;1260;60797;-58
2024/01/28 04:38:49;;;;;;;18.90;12.20;;;;;;;0.66;100.00;101913.08;105355;1255;60498;-57
2024/01/28 04:41:16;;;;;;;18.40;12.50;;;;;;;0.67;100.00;101917.34;104905;1260;73669;-57
2024/01/28 04:43:43;;;;;;;25.10;16.20;;;;;;;0.64;100.00;101925.04;104670;1263;67424;-57
2024/01/28 04:46:14;;;;;;;22.10;14.40;;;;;;;0.61;100.00;101926.70;104781;1257;72648;-56
2024/01/28 04:48:41;;;;;;;21.10;13.60;;;;;;;0.58;100.00;101925.95;104743;1254;60954;-56
2024/01/28 04:51:09;;;;;;;23.90;14.20;;;;;;;0.56;100.00;101924.66;104819;1258;62139;-56
2024/01/28 04:53:36;;;;;;;20.80;13.30;;;;;;;0.56;100.00;101924.11;104743;1261;73901;-57
2024/01/28 04:56:04;;;;;;;21.90;14.10;;;;;;;0.58;100.00;101924.00;104877;1254;66223;-55
2024/01/28 04:58:31;;;;;;;34.60;19.70;;;;;;;0.61;100.00;101926.52;108749;1257;71380;-59
2024/01/28 05:00:59;;;;;;;37.50;21.90;;;;;;;0.62;100.00;101928.84;108963;1255;59698;-58
2024/01/28 05:03:26;;;;;;;36.20;21.00;;;;;;;0.59;100.00;101931.25;108874;1254;60692;-58
2024/01/28 05:05:54;;;;;;;34.20;19.10;;;;;;;0.56;100.00;101933.84;108954;1259;72927;-58
2024/01/28 05:08:21;;;;;;;29.10;17.80;;;;;;;0.54;100.00;101930.58;108881;1254;65713;-58
2024/01/28 05:10:48;;;;;;;29.20;16.40;;;;;;;0.54;100.00;101938.16;108980;1257;73263;-58
2024/01/28 05:13:16;;;;;;;26.40;16.30;;;;;;;0.53;100.00;101939.93;108870;1255;60068;-58
2024/01/28 05:15:43;;;;;;;22.80;15.00;;;;;;;0.54;100.00;101945.95;108252;1257;59991;-54
2024/01/28 05:18:11;;;;;;;26.50;15.40;;;;;;;0.54;100.00;101950.73;104802;1255;72619;-57
2024/01/28 05:20:38;;;;;;;29.20;18.30;;;;;;;0.55;100.00;101952.71;104734;1260;65861;-57
2024/01/28 05:23:06;;;;;;;27.60;16.70;;;;;;;0.54;100.00;101954.61;104623;1256;71054;-57
2024/01/28 05:25:33;;;;;;;23.30;14.40;;;;;;;0.53;100.00;101961.30;104566;1260;61350;-56
2024/01/28 05:28:00;;;;;;;23.00;15.30;;;;;;;0.53;100.00;101973.13;104730;1254;60508;-56
2024/01/28 05:30:29;;;;;;;24.80;14.50;;;;;;;0.55;100.00;101977.09;104857;1255;72874;-56
2024/01/28 05:32:56;;;;;;;22.70;14.00;;;;;;;0.57;100.00;101980.16;105454;1254;67521;-56
2024/01/28 05:35:24;;;;;;;25.30;14.50;;;;;;;0.59;100.00;101984.80;104775;1257;71545;-55
2024/01/28 05:37:51;;;;;;;23.30;15.50;;;;;;;0.61;100.00;101987.67;104622;1254;60377;-56
2024/01/28 05:40:19;;;;;;;24.40;15.40;;;;;;;0.61;100.00;101992.27;104696;1257;60454;-58
2024/01/28 05:42:47;;;;;;;28.80;17.10;;;;;;;0.58;100.00;101995.57;104650;1257;72762;-57
2024/01/28 05:45:15;;;;;;;22.40;13.30;;;;;;;0.57;100.00;102000.82;104719;1257;67079;-56
2024/01/28 05:47:42;;;;;;;19.80;12.80;;;;;;;0.55;100.00;102003.59;104922;1259;73232;-54
2024/01/28 05:50:10;;;;;;;21.30;13.30;;;;;;;0.55;100.00;102004.46;104798;1256;60888;-56
2024/01/28 05:52:37;;;;;;;19.40;13.30;;;;;;;0.57;100.00;102010.02;104908;1255;60564;-57
2024/01/28 05:55:04;;;;;;;25.20;15.60;;;;;;;0.63;100.00;102016.89;104646;1257;72681;-57
2024/01/28 05:57:32;;;;;;;23.90;15.70;;;;;;;0.67;100.00;102020.01;104786;1254;66198;-57
2024/01/28 05:59:59;;;;;;;24.10;15.20;;;;;;;0.70;100.00;102022.55;104934;1254;72957;-57
2024/01/28 06:02:27;;;;;;;23.00;14.50;;;;;;;0.72;100.00;102029.15;104626;1257;60454;-57
2024/01/28 06:04:54;;;;;;;23.60;14.50;;;;;;;0.70;100.00;102032.27;104978;1257;60576;-58
2024/01/28 06:07:21;;;;;;;25.30;15.90;;;;;;;0.67;100.00;102036.97;104448;1254;361425;-57
2024/01/28 06:10:30;;;;;;;25.10;14.60;;;;;;;0.67;100.00;102150.77;102462;1285;601364;-57
2024/01/28 06:12:57;;;;;;;20.10;12.80;;;;;;;0.65;100.00;102180.91;104302;1266;59651;-56
2024/01/28 06:15:25;;;;;;;21.60;14.50;;;;;;;0.64;100.00;102163.42;104237;1263;59373;-56
2024/01/28 06:17:53;;;;;;;20.00;12.80;;;;;;;0.64;100.00;102153.48;103911;1266;71548;-56
2024/01/28 06:20:20;;;;;;;26.90;16.50;;;;;;;0.65;100.00;102152.84;103935;1266;67348;-57
2024/01/28 06:22:47;;;;;;;29.90;16.10;;;;;;;0.64;100.00;102150.32;104109;1271;72644;-58
2024/01/28 06:25:15;;;;;;;26.10;15.50;;;;;;;0.62;100.00;102150.62;104033;1267;175542;-57
2024/01/28 06:27:42;;;;;;;25.20;15.40;;;;;;;0.61;100.00;102151.46;104354;1264;59342;-57
2024/01/28 06:30:10;;;;;;;22.90;15.30;;;;;;;0.58;100.00;102144.16;104385;1263;72907;-57
2024/01/28 06:32:38;;;;;;;24.70;16.10;;;;;;;0.59;100.00;102151.23;104930;1263;65398;-57
2024/01/28 06:35:07;;;;;;;21.60;15.10;;;;;;;0.62;100.00;102151.67;104406;1267;71469;-57
2024/01/28 06:37:36;;;;;;;27.20;15.80;;;;;;;0.66;100.00;102154.64;105077;1266;59769;-57
2024/01/28 06:40:03;;;;;;;22.50;14.50;;;;;;;0.70;100.00;102160.22;104381;1262;60507;-57
2024/01/28 06:42:32;;;;;;;20.30;13.50;;;;;;;0.72;100.00;102164.72;104224;1267;72877;-58
2024/01/28 06:45:00;;;;;;;24.90;14.40;;;;;;;0.71;100.00;102164.86;104148;1267;67636;-57
2024/01/28 06:47:27;;;;;;;22.30;14.60;;;;;;;0.68;100.00;102160.35;104203;1263;71782;-58
2024/01/28 06:49:54;;;;;;;22.80;13.50;;;;;;;0.66;100.00;102154.45;104244;1264;59768;-57
2024/01/28 06:52:22;;;;;;;22.20;13.50;;;;;;;0.68;100.00;102159.27;104613;1262;59829;-57
2024/01/28 06:54:49;;;;;;;20.30;12.70;;;;;;;0.72;100.00;102159.95;104905;1259;73095;-58
2024/01/28 06:57:18;;;;;;;24.40;14.60;;;;;;;0.79;100.00;102166.32;104599;1256;65648;-58
2024/01/28 06:59:45;;;;;;;24.10;14.50;;;;;;;0.84;100.00;102170.54;104854;1256;71425;-58
2024/01/28 07:02:12;;;;;;;33.90;20.40;;;;;;;0.89;100.00;102177.08;104584;1256;59910;-57
2024/01/28 07:04:40;;;;;;;27.60;17.40;;;;;;;0.91;100.00;102180.28;104735;1260;62576;-57
2024/01/28 07:07:08;;;;;;;35.90;19.40;;;;;;;0.87;100.00;102179.83;105899;1256;71313;-58
2024/01/28 07:09:35;;;;;;;25.00;15.50;;;;;;;0.84;100.00;102185.05;108678;1256;68093;-59
2024/01/28 07:12:03;;;;;;;24.00;14.60;;;;;;;0.80;100.00;102182.42;108887;1256;73059;-59
2024/01/28 07:14:31;;;;;;;24.10;15.00;;;;;;;0.78;100.00;102185.89;108792;1256;59546;-57
2024/01/28 07:16:58;;;;;;;22.40;13.60;;;;;;;0.79;100.00;102184.70;108805;1255;60288;-59
2024/01/28 07:19:25;;;;;;;25.60;14.70;;;;;;;0.83;100.00;102194.73;108807;1256;71860;-59
2024/01/28 07:21:53;;;;;;;23.10;14.60;;;;;;;0.88;100.00;102198.04;108752;1256;65123;-59
2024/01/28 07:24:21;;;;;;;27.30;15.40;;;;;;;0.94;100.00;102197.68;105794;1258;71461;-58
2024/01/28 07:26:48;;;;;;;24.00;14.60;;;;;;;0.98;100.00;102200.99;104847;1260;59813;-57
2024/01/28 07:29:15;;;;;;;25.70;15.70;;;;;;;0.98;100.00;102207.39;104867;1256;60023;-57
2024/01/28 07:31:43;;;;;;;34.00;19.00;;;;;;;0.97;100.00;102207.17;104846;1259;71576;-58
2024/01/28 07:34:10;;;;;;;31.80;18.50;;;;;;;0.93;100.00;102212.19;105286;1256;66212;-58
2024/01/28 07:36:37;;;;;;;25.20;16.40;;;;;;;0.89;100.00;102208.51;104795;1256;72658;-57
2024/01/28 07:39:07;;;;;;;24.70;15.90;;;;;;;0.83;100.00;102206.91;104792;1257;60942;-57
2024/01/28 07:41:35;;;;;;;27.50;15.80;;;;;;;0.80;100.00;102208.06;105932;1256;59989;-57
2024/01/28 07:44:04;;;;;;;26.50;16.60;;;;;;;0.82;100.00;102215.35;104690;1260;74322;-58
2024/01/28 07:46:31;;;;;;;26.10;16.20;;;;;;;0.83;100.00;102214.53;104526;1256;66946;-58
2024/01/28 07:48:58;;;;;;;25.90;16.10;;;;;;;0.85;100.00;102216.00;104630;1261;72829;-58
2024/01/28 07:51:26;;;;;;;27.10;17.20;;;;;;;0.84;100.00;102219.69;104868;1256;60188;-58
2024/01/28 07:53:53;;;;;;;29.10;16.80;;;;;;;0.81;100.00;102220.83;104702;1258;60347;-59
2024/01/28 07:56:21;;;;;;;23.20;15.20;;;;;;;0.79;100.00;102226.40;104619;1256;72147;-57
2024/01/28 07:58:48;;;;;;;25.20;15.20;;;;;;;0.76;100.00;102232.54;104533;1260;65564;-59
2024/01/28 08:01:15;;;;;;;28.60;15.20;;;;;;;0.76;100.00;102234.11;104477;1260;72824;-59
2024/01/28 08:03:42;;;;;;;25.20;15.40;;;;;;;0.78;100.00;102235.92;104675;1261;59711;-58
2024/01/28 08:06:10;;;;;;;37.10;21.40;;;;;;;0.81;100.00;102237.98;104796;1261;59453;-58
2024/01/28 08:08:37;;;;;;;37.30;20.70;;;;;;;0.85;100.00;102241.80;108906;1256;71849;-59
2024/01/28 08:11:05;;;;;;;32.10;19.40;;;;;;;0.88;100.00;102248.95;108930;1260;66997;-59
2024/01/28 08:13:33;;;;;;;30.50;19.20;;;;;;;0.90;100.00;102249.92;106988;1259;72372;-59
2024/01/28 08:16:02;;;;;;;27.60;16.90;;;;;;;0.89;100.00;102251.11;104852;1260;61566;-59
2024/01/28 08:18:29;;;;;;;28.70;16.30;;;;;;;0.86;100.00;102252.27;108897;1256;59344;-59
2024/01/28 08:20:57;;;;;;;28.10;15.30;;;;;;;0.84;100.00;102255.94;108989;1257;73162;-60
2024/01/28 08:23:29;;;;;;;28.90;15.10;;;;;;;0.85;100.00;102260.20;108941;1259;66986;-59
2024/01/28 08:25:56;;;;;;;25.10;14.90;;;;;;;0.89;100.00;102264.20;108855;1255;71472;-59
2024/01/28 08:28:23;;;;;;;23.90;15.20;;;;;;;0.94;100.00;102270.20;108401;1256;59243;-59
2024/01/28 08:30:51;;;;;;;25.90;15.90;;;;;;;0.99;100.00;102274.42;104528;1259;59617;-57
2024/01/28 08:33:18;;;;;;;28.80;17.40;;;;;;;0.99;100.00;102273.00;104975;1256;71631;-59
2024/01/28 08:35:46;;;;;;;30.20;17.80;;;;;;;0.99;100.00;102276.55;104786;1256;67003;-60
2024/01/28 08:38:13;;;;;;;30.40;16.80;;;;;;;0.96;100.00;102277.66;104634;1259;73175;-59
2024/01/28 08:40:40;;;;;;;44.10;22.80;;;;;;;0.92;100.00;102280.41;104820;1255;60848;-59
2024/01/28 08:43:08;;;;;;;32.90;17.50;;;;;;;0.90;100.00;102283.70;104783;1257;60983;-59
2024/01/28 08:45:38;;;;;;;28.20;16.10;;;;;;;0.91;100.00;102288.48;105030;1256;72010;-59
2024/01/28 08:48:06;;;;;;;27.40;17.50;;;;;;;0.92;100.00;102290.46;104709;1260;67405;-59
2024/01/28 08:50:34;;;;;;;25.10;16.90;;;;;;;0.95;100.00;102295.69;104816;1256;70481;-58
2024/01/28 08:53:01;;;;;;;27.70;16.10;;;;;;;0.99;100.00;102302.70;104662;1257;59727;-59
2024/01/28 08:55:28;;;;;;;32.30;18.10;;;;;;;1.00;100.00;102301.50;104812;1256;59632;-59
2024/01/28 08:57:56;;;;;;;30.00;17.20;;;;;;;0.97;100.00;102307.61;105376;1259;73028;-59
2024/01/28 09:00:23;;;;;;;30.00;16.70;;;;;;;0.96;100.00;102305.42;104811;1256;67245;-58
2024/01/28 09:02:50;;;;;;;26.10;13.90;;;;;;;0.97;100.00;102304.05;104839;1258;71526;-59
2024/01/28 09:05:18;;;;;;;28.60;15.70;;;;;;;0.99;100.00;102303.08;104753;1256;63258;-58
2024/01/28 09:07:45;;;;;;;28.80;16.80;;;;;;;1.05;100.00;102308.38;104671;1262;60063;-58
2024/01/28 09:10:13;;;;;;;28.10;17.20;;;;;;;1.12;100.00;102307.54;105225;1256;71865;-60
2024/01/28 09:12:40;;;;;;;32.60;18.30;;;;;;;1.17;100.00;102308.38;104796;1256;66089;-59
2024/01/28 09:15:08;;;;;;;33.50;18.80;;;;;;;1.20;100.00;102311.83;104862;1259;71477;-58
2024/01/28 09:17:35;;;;;;;32.20;17.60;;;;;;;1.20;100.00;102311.65;104844;1260;61454;-59
2024/01/28 09:20:04;;;;;;;26.60;15.00;;;;;;;1.17;100.00;102312.65;104801;1256;60080;-59
2024/01/28 09:22:34;;;;;;;23.40;13.60;;;;;;;1.13;100.00;102312.16;105420;1256;71649;-58
2024/01/28 09:25:05;;;;;;;23.10;14.70;;;;;;;1.12;100.00;102317.60;105143;1257;65407;-57
2024/01/28 09:27:32;;;;;;;28.20;14.10;;;;;;;1.14;100.00;102316.27;104767;1257;73156;-57
2024/01/28 09:29:59;;;;;;;23.90;14.50;;;;;;;1.17;100.00;102315.48;104685;1256;59645;-58
2024/01/28 09:32:27;;;;;;;23.40;14.30;;;;;;;1.20;100.00;102315.20;104651;1256;60048;-59
2024/01/28 09:34:54;;;;;;;21.00;13.00;;;;;;;1.21;100.00;102313.99;104642;1258;71816;-57
2024/01/28 09:37:22;;;;;;;28.80;14.80;;;;;;;1.22;100.00;102316.66;105134;1256;65374;-59
2024/01/28 09:39:49;;;;;;;23.30;12.90;;;;;;;1.21;100.00;102317.70;104691;1259;71537;-58
2024/01/28 09:42:24;;;;;;;25.60;15.30;;;;;;;1.19;100.00;102318.90;104674;1256;61462;-59
2024/01/28 09:44:52;;;;;;;23.00;13.20;;;;;;;1.19;100.00;102322.25;105583;1256;60089;-58
2024/01/28 09:47:19;;;;;;;22.30;12.20;;;;;;;1.20;100.00;102323.67;104668;1260;73194;-59
2024/01/28 09:49:47;;;;;;;19.20;12.00;;;;;;;1.22;100.00;102324.29;104895;1260;67575;-58
2024/01/28 09:52:16;;;;;;;19.40;11.80;;;;;;;1.25;100.00;102328.08;104960;1256;70458;-56
2024/01/28 09:54:46;;;;;;;19.60;13.60;;;;;;;1.28;100.00;102327.48;104821;1256;59733;-57
2024/01/28 09:57:14;;;;;;;23.20;14.00;;;;;;;1.32;100.00;102332.72;104974;1256;60055;-57
2024/01/28 09:59:42;;;;;;;21.40;12.90;;;;;;;1.30;100.00;102332.85;104781;1256;71827;-57
2024/01/28 10:02:10;;;;;;;23.40;13.00;;;;;;;1.25;100.00;102332.34;104768;1261;66166;-57
2024/01/28 10:04:37;;;;;;;24.70;13.50;;;;;;;1.20;100.00;102331.64;104479;1262;73138;-58
2024/01/28 10:07:07;;;;;;;19.80;12.40;;;;;;;1.13;100.00;102327.38;104889;1256;60593;-58
2024/01/28 10:09:35;;;;;;;17.80;12.40;;;;;;;1.11;100.00;102328.55;104928;1261;59714;-58
2024/01/28 10:12:03;;;;;;;17.20;11.10;;;;;;;1.11;100.00;102329.61;108829;1256;74990;-59
2024/01/28 10:14:30;;;;;;;20.50;11.80;;;;;;;1.16;100.00;102331.53;104880;1256;66336;-59
2024/01/28 10:16:58;;;;;;;25.00;13.70;;;;;;;1.20;100.00;102334.66;104755;1257;73040;-58
2024/01/28 10:19:25;;;;;;;25.00;13.90;;;;;;;1.22;100.00;102339.13;104641;1259;60521;-59
2024/01/28 10:21:53;;;;;;;22.00;13.70;;;;;;;1.22;100.00;102343.73;104469;1256;60342;-58
2024/01/28 10:24:20;;;;;;;22.00;13.50;;;;;;;1.25;100.00;102345.41;104746;1262;71797;-58
2024/01/28 10:26:48;;;;;;;21.00;12.30;;;;;;;1.26;100.00;102351.29;105675;1256;67193;-59
2024/01/28 10:29:15;;;;;;;19.20;12.10;;;;;;;1.24;100.00;102351.77;104656;1262;72646;-59
2024/01/28 10:31:42;;;;;;;17.80;10.90;;;;;;;1.21;100.00;102353.61;104624;1261;61125;-59
2024/01/28 10:34:10;;;;;;;19.60;10.00;;;;;;;1.17;100.00;102353.67;105342;1257;60646;-58
2024/01/28 10:36:39;;;;;;;13.50;9.10;;;;;;;1.16;100.00;102356.12;104713;1258;74026;-58
2024/01/28 10:39:08;;;;;;;17.80;10.60;;;;;;;1.19;100.00;102354.98;104813;1262;65158;-59
2024/01/28 10:41:38;;;;;;;14.50;9.50;;;;;;;1.21;100.00;102364.05;104549;1261;73126;-60
2024/01/28 10:44:06;;;;;;;19.50;10.90;;;;;;;1.22;100.00;102362.48;104522;1256;60556;-59
2024/01/28 10:46:41;;;;;;;18.80;11.40;;;;;;;1.22;100.00;102363.17;104784;1262;60495;-58
2024/01/28 10:49:09;;;;;;;18.70;11.50;;;;;;;1.18;100.00;102371.41;104778;1256;72627;-58
2024/01/28 10:51:38;;;;;;;16.20;11.30;;;;;;;1.16;100.00;102377.16;108807;1257;65824;-58
2024/01/28 10:54:10;;;;;;;15.90;10.00;;;;;;;1.16;100.00;102374.69;105073;1257;72794;-60
2024/01/28 10:56:38;;;;;;;16.30;9.20;;;;;;;1.18;100.00;102382.89;108810;1256;59883;-57
2024/01/28 10:59:05;;;;;;;13.50;8.60;;;;;;;1.21;100.00;102385.96;108816;1256;58808;-56
2024/01/28 11:01:33;;;;;;;17.60;10.00;;;;;;;1.24;100.00;102387.48;108815;1255;71569;-58
2024/01/28 11:04:02;;;;;;;14.20;10.10;;;;;;;1.28;100.00;102392.58;108906;1256;68431;-58